createdAt,value
2023-05-04T00:02:08.047Z,6.80
2023-05-04T00:04:35.130Z,6.80
2023-05-04T00:07:02.311Z,6.70
2023-05-04T00:09:29.450Z,6.60
2023-05-04T00:11:56.692Z,6.60
2023-05-04T00:14:23.754Z,6.50
2023-05-04T00:16:50.885Z,6.40
2023-05-04T00:19:19.674Z,6.30
2023-05-04T00:21:46.898Z,6.40
2023-05-04T00:24:14.022Z,6.40
2023-05-04T00:26:41.262Z,6.40
2023-05-04T00:29:08.359Z,6.40
2023-05-04T00:31:35.459Z,6.40
2023-05-04T00:34:02.564Z,6.50
2023-05-04T00:36:30.548Z,6.30
2023-05-04T00:38:58.023Z,6.20
2023-05-04T00:41:25.128Z,6.30
2023-05-04T00:43:52.512Z,6.20
2023-05-04T00:46:20.076Z,6.30
2023-05-04T00:48:49.654Z,6.30
2023-05-04T00:51:20.514Z,6.30
2023-05-04T00:53:48.941Z,6.20
2023-05-04T00:56:16.984Z,6.10
2023-05-04T00:58:44.199Z,6.10
2023-05-04T01:01:11.701Z,6.10
2023-05-04T01:03:39.034Z,6.00
2023-05-04T01:06:33.563Z,5.90
2023-05-04T01:09:17.186Z,5.90
2023-05-04T01:12:01.576Z,5.80
2023-05-04T01:14:30.486Z,5.80
2023-05-04T01:16:59.843Z,5.80
2023-05-04T01:19:30.181Z,5.70
2023-05-04T01:21:57.415Z,5.80
2023-05-04T01:24:26.740Z,5.70
2023-05-04T01:27:02.972Z,5.70
2023-05-04T01:29:46.831Z,5.70
2023-05-04T01:32:15.885Z,5.70
2023-05-04T01:34:42.937Z,5.70
2023-05-04T01:37:10.435Z,5.60
2023-05-04T01:39:37.512Z,5.60
2023-05-04T01:42:05.058Z,5.60
2023-05-04T01:44:32.134Z,5.50
2023-05-04T01:46:59.361Z,5.50
2023-05-04T01:49:26.550Z,5.50
2023-05-04T01:51:53.670Z,5.40
2023-05-04T01:54:20.849Z,5.40
2023-05-04T01:56:47.986Z,5.40
2023-05-04T01:59:15.924Z,5.40
2023-05-04T02:01:43.005Z,5.40
2023-05-04T02:04:10.353Z,5.40
2023-05-04T02:06:38.986Z,5.40
2023-05-04T02:09:06.137Z,5.30
2023-05-04T02:11:33.724Z,5.30
2023-05-04T02:14:00.980Z,5.20
2023-05-04T02:16:28.051Z,5.20
2023-05-04T02:18:55.172Z,5.20
2023-05-04T02:21:23.122Z,5.20
2023-05-04T02:23:50.283Z,5.10
2023-05-04T02:26:17.432Z,5.10
2023-05-04T02:28:44.553Z,5.10
2023-05-04T02:31:11.657Z,5.00
2023-05-04T02:33:38.782Z,5.00
2023-05-04T02:36:06.306Z,5.10
2023-05-04T02:38:33.641Z,5.00
2023-05-04T02:41:00.655Z,5.00
2023-05-04T02:43:27.776Z,5.00
2023-05-04T02:45:54.947Z,4.90
2023-05-04T02:48:22.101Z,4.90
2023-05-04T02:50:49.151Z,4.90
2023-05-04T02:53:16.316Z,4.90
2023-05-04T02:55:43.517Z,4.90
2023-05-04T02:58:10.589Z,4.80
2023-05-04T03:00:37.713Z,4.80
2023-05-04T03:03:04.823Z,4.80
2023-05-04T03:05:31.896Z,4.80
2023-05-04T03:07:58.976Z,4.80
2023-05-04T03:10:26.275Z,4.80
2023-05-04T03:12:53.369Z,4.70
2023-05-04T03:15:20.559Z,4.70
2023-05-04T03:17:47.888Z,4.70
2023-05-04T03:20:15.208Z,4.70
2023-05-04T03:22:42.714Z,4.60
2023-05-04T03:25:10.665Z,4.50
2023-05-04T03:27:37.737Z,4.50
2023-05-04T03:30:06.696Z,4.40
2023-05-04T03:32:35.127Z,4.30
2023-05-04T03:35:03.967Z,4.30
2023-05-04T03:37:31.409Z,4.30
2023-05-04T03:39:58.460Z,4.20
2023-05-04T03:42:25.546Z,4.30
2023-05-04T03:44:52.797Z,4.30
2023-05-04T03:47:20.028Z,4.40
2023-05-04T03:49:47.819Z,4.40
2023-05-04T03:52:14.927Z,4.40
2023-05-04T03:54:42.009Z,4.40
2023-05-04T03:57:09.198Z,4.40
2023-05-04T03:59:37.139Z,4.40
2023-05-04T04:02:06.540Z,4.50
2023-05-04T04:04:33.838Z,4.50
2023-05-04T04:07:01.217Z,4.50
2023-05-04T04:09:30.624Z,4.60
2023-05-04T04:11:57.734Z,4.70
2023-05-04T04:14:24.858Z,4.80
2023-05-04T04:16:51.985Z,4.80
2023-05-04T04:19:19.032Z,4.90
2023-05-04T04:21:46.178Z,4.90
2023-05-04T04:24:13.394Z,4.90
2023-05-04T04:26:40.464Z,5.00
2023-05-04T04:29:07.729Z,5.10
2023-05-04T04:31:34.851Z,5.30
2023-05-04T04:34:01.973Z,5.40
2023-05-04T04:36:29.574Z,5.50
2023-05-04T04:38:56.638Z,5.60
2023-05-04T04:41:25.012Z,5.70
2023-05-04T04:43:55.212Z,5.70
2023-05-04T04:46:22.429Z,5.80
2023-05-04T04:48:50.246Z,5.80
2023-05-04T04:51:17.320Z,5.90
2023-05-04T04:53:44.603Z,6.10
2023-05-04T04:56:11.710Z,6.30
2023-05-04T04:58:38.953Z,6.50
2023-05-04T05:01:08.347Z,6.50
2023-05-04T05:03:35.476Z,6.60
2023-05-04T05:06:02.873Z,6.70
2023-05-04T05:08:30.455Z,6.90
2023-05-04T05:10:57.495Z,7.00
2023-05-04T05:13:24.634Z,7.10
2023-05-04T05:15:51.810Z,7.00
2023-05-04T05:18:19.867Z,7.30
2023-05-04T05:20:46.993Z,7.50
2023-05-04T05:23:14.066Z,7.80
2023-05-04T05:25:41.701Z,7.90
2023-05-04T05:28:08.937Z,8.00
2023-05-04T05:30:36.273Z,8.10
2023-05-04T05:33:03.904Z,8.30
2023-05-04T05:35:31.325Z,8.40
2023-05-04T05:37:58.514Z,8.40
2023-05-04T05:40:25.693Z,8.40
2023-05-04T05:42:52.755Z,8.70
2023-05-04T05:45:19.907Z,9.00
2023-05-04T05:47:47.054Z,9.20
2023-05-04T05:50:14.360Z,9.40
2023-05-04T05:52:41.440Z,9.50
2023-05-04T05:55:09.318Z,9.30
2023-05-04T05:57:36.559Z,9.20
2023-05-04T06:00:06.381Z,9.40
2023-05-04T06:02:39.314Z,9.70
2023-05-04T06:05:07.096Z,10.00
2023-05-04T06:07:34.555Z,10.00
2023-05-04T06:10:02.176Z,10.20
2023-05-04T06:12:29.392Z,10.50
2023-05-04T06:14:56.640Z,10.70
2023-05-04T06:17:23.712Z,10.90
2023-05-04T06:19:51.400Z,10.70
2023-05-04T06:22:18.526Z,10.70
2023-05-04T06:24:46.649Z,11.00
2023-05-04T06:27:13.786Z,10.90
2023-05-04T06:29:41.479Z,11.10
2023-05-04T06:32:10.377Z,11.50
2023-05-04T06:34:37.616Z,11.50
2023-05-04T06:37:04.640Z,11.70
2023-05-04T06:39:31.840Z,12.10
2023-05-04T06:41:59.609Z,12.20
2023-05-04T06:44:28.645Z,12.40
2023-05-04T06:46:55.826Z,12.20
2023-05-04T06:49:22.923Z,12.20
2023-05-04T06:51:50.145Z,12.50
2023-05-04T06:54:17.217Z,12.80
2023-05-04T06:56:44.333Z,13.10
2023-05-04T06:59:11.407Z,13.40
2023-05-04T07:01:38.938Z,13.40
2023-05-04T07:04:06.748Z,13.40
2023-05-04T07:06:33.902Z,13.00
2023-05-04T07:09:01.239Z,13.10
2023-05-04T07:11:28.793Z,13.40
2023-05-04T07:13:55.997Z,13.80
2023-05-04T07:16:23.119Z,13.90
2023-05-04T07:18:50.202Z,14.30
2023-05-04T07:21:27.798Z,14.50
2023-05-04T07:23:56.568Z,14.10
2023-05-04T07:26:23.680Z,14.00
2023-05-04T07:28:50.813Z,14.10
2023-05-04T07:31:17.951Z,14.30
2023-05-04T07:33:45.780Z,14.60
2023-05-04T07:36:12.963Z,14.60
2023-05-04T07:38:40.056Z,14.50
2023-05-04T07:41:07.368Z,14.50
2023-05-04T07:43:34.432Z,14.60
2023-05-04T07:46:01.704Z,15.10
2023-05-04T07:48:28.871Z,15.10
2023-05-04T07:50:56.075Z,15.30
2023-05-04T07:53:25.548Z,15.10
2023-05-04T07:55:54.399Z,14.90
2023-05-04T07:58:21.608Z,15.00
2023-05-04T08:00:48.859Z,15.30
2023-05-04T08:03:16.689Z,15.60
2023-05-04T08:05:43.896Z,15.10
2023-05-04T08:08:10.992Z,15.20
2023-05-04T08:10:38.782Z,15.70
2023-05-04T08:13:06.121Z,15.70
2023-05-04T08:15:33.299Z,15.60
2023-05-04T08:18:00.437Z,15.90
2023-05-04T08:20:27.666Z,16.10
2023-05-04T08:22:54.755Z,16.10
2023-05-04T08:25:22.783Z,16.20
2023-05-04T08:27:50.436Z,16.20
2023-05-04T08:30:17.746Z,16.20
2023-05-04T08:32:45.257Z,16.50
2023-05-04T08:35:13.337Z,16.40
2023-05-04T08:37:40.526Z,16.70
2023-05-04T08:40:08.690Z,16.90
2023-05-04T08:42:36.399Z,17.10
2023-05-04T08:45:04.215Z,17.20
2023-05-04T08:47:31.526Z,17.00
2023-05-04T08:49:58.918Z,16.70
2023-05-04T08:52:27.037Z,16.70
2023-05-04T08:54:57.016Z,16.70
2023-05-04T08:57:25.449Z,16.80
2023-05-04T08:59:54.929Z,17.10
2023-05-04T09:02:23.837Z,17.50
2023-05-04T09:04:52.718Z,17.60
2023-05-04T09:07:21.972Z,17.60
2023-05-04T09:09:51.772Z,17.40
2023-05-04T09:12:19.406Z,17.20
2023-05-04T09:14:46.908Z,17.40
2023-05-04T09:17:17.780Z,17.50
2023-05-04T09:19:45.072Z,17.70
2023-05-04T09:22:19.423Z,17.50
2023-05-04T09:24:46.904Z,17.50
2023-05-04T09:27:18.644Z,17.40
2023-05-04T09:29:54.312Z,17.50
2023-05-04T09:32:21.597Z,17.70
2023-05-04T09:34:53.816Z,18.00
2023-05-04T09:37:22.255Z,18.30
2023-05-04T09:39:59.437Z,18.40
2023-05-04T09:42:27.063Z,18.30
2023-05-04T09:45:08.273Z,18.20
2023-05-04T09:47:40.769Z,18.70
2023-05-04T09:50:22.381Z,18.30
2023-05-04T09:52:50.449Z,18.50
2023-05-04T09:55:20.485Z,18.60
2023-05-04T09:57:50.682Z,18.50
2023-05-04T10:00:19.078Z,18.50
2023-05-04T10:02:48.108Z,18.80
2023-05-04T10:05:18.179Z,18.60
2023-05-04T10:07:46.477Z,18.40
2023-05-04T10:10:15.213Z,18.80
2023-05-04T10:12:44.660Z,19.10
2023-05-04T10:15:12.771Z,19.10
2023-05-04T10:18:30.884Z,18.70
2023-05-04T10:21:26.191Z,18.80
2023-05-04T10:24:02.274Z,19.30
2023-05-04T10:26:55.223Z,19.10
2023-05-04T10:29:24.997Z,19.40
2023-05-04T10:31:53.480Z,19.60
2023-05-04T10:34:33.372Z,19.60
2023-05-04T10:37:02.936Z,19.60
2023-05-04T10:39:35.286Z,19.60
2023-05-04T10:42:04.613Z,19.60
2023-05-04T10:44:55.097Z,19.70
2023-05-04T10:47:34.112Z,19.70
2023-05-04T10:50:06.485Z,20.00
2023-05-04T10:52:49.131Z,20.20
2023-05-04T10:55:18.073Z,20.10
2023-05-04T10:57:53.856Z,20.00
2023-05-04T11:00:21.682Z,20.00
2023-05-04T11:02:49.783Z,19.70
2023-05-04T11:05:20.114Z,19.70
2023-05-04T11:07:53.103Z,20.00
2023-05-04T11:10:29.509Z,20.50
2023-05-04T11:13:05.712Z,20.90
2023-05-04T11:15:47.243Z,20.60
2023-05-04T11:18:15.425Z,20.70
2023-05-04T11:20:42.936Z,20.80
2023-05-04T11:23:10.478Z,21.20
2023-05-04T11:25:38.480Z,21.00
2023-05-04T11:28:05.658Z,20.90
2023-05-04T11:30:34.770Z,21.40
2023-05-04T11:33:05.276Z,21.60
2023-05-04T11:35:32.561Z,21.80
2023-05-04T11:37:59.723Z,21.90
2023-05-04T11:40:27.569Z,22.00
2023-05-04T11:42:57.864Z,22.20
2023-05-04T11:45:33.453Z,22.60
2023-05-04T11:48:01.270Z,23.50
2023-05-04T11:50:29.353Z,24.30
2023-05-04T11:53:12.215Z,25.00
2023-05-04T11:55:39.691Z,26.00
2023-05-04T11:58:09.989Z,27.40
2023-05-04T12:00:49.177Z,28.30
2023-05-04T12:03:52.324Z,28.10
2023-05-04T12:06:32.567Z,28.10
2023-05-04T12:09:05.819Z,27.90
2023-05-04T12:11:34.237Z,28.60
2023-05-04T12:14:10.392Z,28.80
2023-05-04T12:16:38.786Z,28.90
2023-05-04T12:19:12.764Z,29.50
2023-05-04T12:22:09.992Z,29.00
2023-05-04T12:24:37.173Z,28.20
2023-05-04T12:27:05.022Z,27.90
2023-05-04T12:29:35.026Z,29.10
2023-05-04T12:32:02.213Z,30.00
2023-05-04T12:34:29.458Z,29.60
2023-05-04T12:36:56.671Z,30.50
2023-05-04T12:39:24.132Z,31.30
2023-05-04T12:41:51.439Z,30.70
2023-05-04T12:44:19.058Z,30.80
2023-05-04T12:46:46.338Z,30.90
2023-05-04T12:49:14.725Z,31.50
2023-05-04T12:51:42.108Z,31.90
2023-05-04T12:54:09.598Z,32.50
2023-05-04T12:56:37.390Z,33.10
2023-05-04T12:59:04.639Z,31.30
2023-05-04T13:01:31.924Z,32.10
2023-05-04T13:03:59.235Z,31.40
2023-05-04T13:06:26.538Z,32.40
2023-05-04T13:08:53.940Z,33.00
2023-05-04T13:11:21.212Z,32.90
2023-05-04T13:13:48.630Z,33.60
2023-05-04T13:16:17.114Z,33.80
2023-05-04T13:18:44.603Z,33.60
2023-05-04T13:21:11.920Z,32.90
2023-05-04T13:23:39.250Z,31.50
2023-05-04T13:26:06.852Z,31.10
2023-05-04T13:28:34.047Z,31.50
2023-05-04T13:31:01.722Z,30.80
2023-05-04T13:33:30.837Z,31.20
2023-05-04T13:35:59.332Z,31.70
2023-05-04T13:38:27.317Z,31.10
2023-05-04T13:40:56.281Z,31.70
2023-05-04T13:43:24.021Z,31.40
2023-05-04T13:45:52.024Z,31.80
2023-05-04T13:48:19.334Z,32.10
2023-05-04T13:50:46.961Z,32.80
2023-05-04T13:53:14.179Z,33.50
2023-05-04T13:55:41.471Z,33.70
2023-05-04T13:58:08.680Z,33.70
2023-05-04T14:00:35.951Z,32.60
2023-05-04T14:03:04.889Z,31.00
2023-05-04T14:05:32.281Z,32.10
2023-05-04T14:07:59.677Z,32.80
2023-05-04T14:10:27.418Z,33.80
2023-05-04T14:12:54.709Z,33.50
2023-05-04T14:15:23.176Z,34.40
2023-05-04T14:17:50.851Z,34.40
2023-05-04T14:20:18.392Z,33.80
2023-05-04T14:22:45.752Z,33.80
2023-05-04T14:25:13.420Z,33.70
2023-05-04T14:27:43.016Z,32.30
2023-05-04T14:30:11.148Z,32.30
2023-05-04T14:32:38.391Z,31.50
2023-05-04T14:35:08.989Z,31.40
2023-05-04T14:37:38.244Z,30.80
2023-05-04T14:40:10.874Z,31.10
2023-05-04T14:42:38.871Z,31.90
2023-05-04T14:45:08.100Z,31.60
2023-05-04T14:47:35.429Z,32.00
2023-05-04T14:50:02.659Z,31.80
2023-05-04T14:52:29.680Z,31.90
2023-05-04T14:54:56.881Z,31.10
2023-05-04T14:57:23.989Z,30.30
2023-05-04T14:59:51.314Z,30.10
2023-05-04T15:02:19.296Z,30.30
2023-05-04T15:04:47.061Z,30.70
2023-05-04T15:07:20.624Z,29.80
2023-05-04T15:09:47.824Z,30.30
2023-05-04T15:12:14.960Z,29.80
2023-05-04T15:14:41.970Z,29.90
2023-05-04T15:17:09.321Z,30.20
2023-05-04T15:19:39.920Z,29.90
2023-05-04T15:22:07.808Z,30.80
2023-05-04T15:24:35.120Z,31.10
2023-05-04T15:27:02.404Z,31.40
2023-05-04T15:29:29.692Z,30.90
2023-05-04T15:31:57.204Z,31.00
2023-05-04T15:34:24.361Z,30.70
2023-05-04T15:36:52.131Z,30.70
2023-05-04T15:39:19.247Z,30.70
2023-05-04T15:41:46.385Z,30.00
2023-05-04T15:44:13.420Z,29.90
2023-05-04T15:46:41.092Z,29.60
2023-05-04T15:49:08.380Z,29.40
2023-05-04T15:51:35.467Z,27.50
2023-05-04T15:54:03.747Z,26.40
2023-05-04T15:56:30.852Z,26.80
2023-05-04T15:58:57.924Z,26.50
2023-05-04T16:01:25.438Z,26.50
2023-05-04T16:03:55.627Z,26.90
2023-05-04T16:06:23.690Z,26.80
2023-05-04T16:08:51.125Z,26.90
2023-05-04T16:11:18.308Z,27.20
2023-05-04T16:13:46.449Z,27.30
2023-05-04T16:16:13.530Z,27.00
2023-05-04T16:18:40.754Z,27.10
2023-05-04T16:21:08.929Z,27.10
2023-05-04T16:23:36.449Z,26.20
2023-05-04T16:26:03.802Z,25.90
2023-05-04T16:28:30.948Z,25.40
2023-05-04T16:30:58.378Z,25.20
2023-05-04T16:33:26.734Z,25.30
2023-05-04T16:35:54.137Z,24.90
2023-05-04T16:38:21.193Z,24.10
2023-05-04T16:40:48.562Z,24.00
2023-05-04T16:43:16.050Z,24.00
2023-05-04T16:45:43.188Z,23.70
2023-05-04T16:48:10.568Z,23.40
2023-05-04T16:50:38.424Z,23.40
2023-05-04T16:53:05.626Z,23.60
2023-05-04T16:55:32.674Z,23.60
2023-05-04T16:57:59.780Z,23.40
2023-05-04T17:00:26.835Z,23.10
2023-05-04T17:02:53.988Z,23.00
2023-05-04T17:05:21.338Z,22.30
2023-05-04T17:07:48.644Z,21.90
2023-05-04T17:10:17.784Z,21.60
2023-05-04T17:12:45.136Z,21.40
2023-05-04T17:15:12.867Z,21.50
2023-05-04T17:17:41.322Z,21.40
2023-05-04T17:20:14.506Z,21.30
2023-05-04T17:22:43.240Z,21.10
2023-05-04T17:25:12.089Z,20.70
2023-05-04T17:27:39.624Z,20.40
2023-05-04T17:30:07.803Z,20.30
2023-05-04T17:32:37.266Z,20.20
2023-05-04T17:35:15.929Z,20.10
2023-05-04T17:37:47.800Z,20.10
2023-05-04T17:40:14.907Z,20.00
2023-05-04T17:42:42.407Z,19.90
2023-05-04T17:45:10.022Z,19.90
2023-05-04T17:47:37.365Z,19.80
2023-05-04T17:50:05.458Z,19.80
2023-05-04T17:52:32.960Z,19.60
2023-05-04T17:55:00.137Z,19.50
2023-05-04T17:57:27.368Z,19.40
2023-05-04T17:59:57.163Z,19.30
2023-05-04T18:02:24.431Z,19.10
2023-05-04T18:04:51.754Z,19.00
2023-05-04T18:07:19.210Z,18.80
2023-05-04T18:09:47.440Z,18.70
2023-05-04T18:12:14.729Z,18.60
2023-05-04T18:14:41.843Z,18.30
2023-05-04T18:17:09.020Z,18.20
2023-05-04T18:19:37.040Z,18.10
2023-05-04T18:22:04.206Z,18.10
2023-05-04T18:24:33.317Z,17.80
2023-05-04T18:27:02.186Z,17.70
2023-05-04T18:29:29.410Z,17.60
2023-05-04T18:31:56.620Z,17.50
2023-05-04T18:34:23.749Z,17.40
2023-05-04T18:36:51.040Z,17.20
2023-05-04T18:39:19.029Z,17.10
2023-05-04T18:41:46.345Z,17.00
2023-05-04T18:44:17.305Z,16.90
2023-05-04T18:46:44.587Z,16.80
2023-05-04T18:49:12.214Z,16.70
2023-05-04T18:51:41.719Z,16.60
2023-05-04T18:54:09.182Z,16.50
2023-05-04T18:56:36.531Z,16.40
2023-05-04T18:59:06.117Z,16.30
2023-05-04T19:01:33.553Z,16.20
2023-05-04T19:04:00.724Z,16.10
2023-05-04T19:06:28.047Z,15.90
2023-05-04T19:08:55.502Z,15.80
2023-05-04T19:11:22.690Z,15.70
2023-05-04T19:13:50.080Z,15.60
2023-05-04T19:16:17.546Z,15.50
2023-05-04T19:18:45.694Z,15.40
2023-05-04T19:21:13.012Z,15.20
2023-05-04T19:23:40.134Z,15.10
2023-05-04T19:26:07.236Z,15.00
2023-05-04T19:28:34.356Z,15.00
2023-05-04T19:31:01.604Z,14.90
2023-05-04T19:33:36.641Z,14.80
2023-05-04T19:36:07.871Z,14.70
2023-05-04T19:38:35.422Z,14.60
2023-05-04T19:41:02.474Z,14.50
2023-05-04T19:43:29.699Z,14.50
2023-05-04T19:45:57.432Z,14.40
2023-05-04T19:48:24.812Z,14.30
2023-05-04T19:50:52.118Z,14.20
2023-05-04T19:53:19.259Z,14.10
2023-05-04T19:55:46.644Z,14.00
2023-05-04T19:58:13.824Z,14.00
2023-05-04T20:00:40.946Z,13.90
2023-05-04T20:03:08.137Z,13.80
2023-05-04T20:05:35.474Z,13.70
2023-05-04T20:08:04.996Z,13.70
2023-05-04T20:10:32.661Z,13.60
2023-05-04T20:12:59.837Z,13.50
2023-05-04T20:15:27.257Z,13.40
2023-05-04T20:17:54.351Z,13.40
2023-05-04T20:20:22.017Z,13.40
2023-05-04T20:22:52.371Z,13.30
2023-05-04T20:25:20.153Z,13.30
2023-05-04T20:27:48.832Z,13.20
2023-05-04T20:30:16.373Z,13.10
2023-05-04T20:32:44.226Z,13.10
2023-05-04T20:35:11.468Z,13.10
2023-05-04T20:37:38.730Z,12.90
2023-05-04T20:40:08.304Z,12.90
2023-05-04T20:42:36.050Z,12.90
2023-05-04T20:45:03.349Z,12.80
2023-05-04T20:47:30.448Z,12.70
2023-05-04T20:49:57.548Z,12.60
2023-05-04T20:52:24.870Z,12.60
2023-05-04T20:54:52.122Z,12.50
2023-05-04T20:57:19.226Z,12.40
2023-05-04T20:59:46.397Z,12.30
2023-05-04T21:02:13.550Z,12.20
2023-05-04T21:04:41.824Z,12.10
2023-05-04T21:07:09.192Z,12.10
2023-05-04T21:09:36.446Z,12.10
2023-05-04T21:12:03.914Z,12.00
2023-05-04T21:14:31.104Z,11.90
2023-05-04T21:16:58.304Z,11.90
2023-05-04T21:19:25.452Z,11.90
2023-05-04T21:21:53.082Z,11.90
2023-05-04T21:24:20.818Z,11.90
2023-05-04T21:26:48.623Z,11.90
2023-05-04T21:29:15.870Z,11.90
2023-05-04T21:31:43.056Z,11.80
2023-05-04T21:34:10.662Z,11.80
2023-05-04T21:36:39.050Z,11.80
2023-05-04T21:39:06.339Z,11.80
2023-05-04T21:41:33.550Z,11.70
2023-05-04T21:44:00.770Z,11.70
2023-05-04T21:46:28.136Z,11.60
2023-05-04T21:48:55.290Z,11.50
2023-05-04T21:51:22.377Z,11.50
2023-05-04T21:53:49.474Z,11.50
2023-05-04T21:56:16.714Z,11.40
2023-05-04T21:58:43.819Z,11.40
2023-05-04T22:01:17.261Z,11.30
2023-05-04T22:03:44.995Z,11.40
2023-05-04T22:06:12.312Z,11.30
2023-05-04T22:08:39.729Z,11.20
2023-05-04T22:11:06.783Z,11.10
2023-05-04T22:13:33.866Z,11.10
2023-05-04T22:16:01.281Z,11.00
2023-05-04T22:18:28.403Z,10.90
2023-05-04T22:20:55.512Z,10.80
2023-05-04T22:23:22.563Z,10.80
2023-05-04T22:25:49.710Z,10.80
2023-05-04T22:28:17.096Z,10.80
2023-05-04T22:30:44.315Z,10.70
2023-05-04T22:33:11.430Z,10.70
2023-05-04T22:35:38.558Z,10.70
2023-05-04T22:38:05.655Z,10.60
2023-05-04T22:40:32.934Z,10.50
2023-05-04T22:42:59.962Z,10.50
2023-05-04T22:45:27.119Z,10.60
2023-05-04T22:47:54.193Z,10.50
2023-05-04T22:50:21.415Z,10.40
2023-05-04T22:52:48.639Z,10.40
2023-05-04T22:55:15.766Z,10.30
2023-05-04T22:57:43.202Z,10.30
2023-05-04T23:00:11.532Z,10.30
2023-05-04T23:02:38.952Z,10.20
2023-05-04T23:05:07.131Z,10.20
2023-05-04T23:07:34.440Z,10.10
2023-05-04T23:10:01.927Z,10.00
2023-05-04T23:12:29.065Z,10.00
2023-05-04T23:14:56.519Z,10.00
2023-05-04T23:17:23.756Z,10.00
2023-05-04T23:19:51.138Z,9.90
2023-05-04T23:22:18.219Z,9.90
2023-05-04T23:24:45.498Z,10.00
2023-05-04T23:27:12.623Z,10.00
2023-05-04T23:29:39.768Z,9.90
2023-05-04T23:32:07.026Z,9.90
2023-05-04T23:34:34.282Z,9.90
2023-05-04T23:37:01.584Z,9.90
2023-05-04T23:39:28.745Z,9.80
2023-05-04T23:41:55.860Z,9.80
2023-05-04T23:44:22.953Z,9.80
2023-05-04T23:46:50.098Z,9.70
2023-05-04T23:49:17.263Z,9.70
2023-05-04T23:51:44.488Z,9.60
2023-05-04T23:54:11.557Z,9.60
2023-05-04T23:56:38.645Z,9.50
2023-05-04T23:59:05.867Z,9.50
